createdAt,value
2023-04-17T00:01:32.856Z,7.10
2023-04-17T00:03:59.878Z,7.10
2023-04-17T00:06:27.398Z,7.10
2023-04-17T00:08:54.351Z,7.00
2023-04-17T00:11:21.432Z,7.10
2023-04-17T00:13:48.396Z,7.00
2023-04-17T00:16:15.352Z,7.00
2023-04-17T00:18:42.260Z,7.10
2023-04-17T00:21:09.190Z,7.10
2023-04-17T00:23:36.063Z,7.00
2023-04-17T00:26:02.956Z,7.10
2023-04-17T00:28:29.864Z,7.20
2023-04-17T00:30:58.911Z,7.10
2023-04-17T00:33:25.800Z,7.00
2023-04-17T00:35:53.538Z,7.00
2023-04-17T00:38:20.422Z,7.00
2023-04-17T00:40:47.342Z,7.10
2023-04-17T00:43:14.245Z,7.00
2023-04-17T00:45:42.123Z,7.10
2023-04-17T00:48:09.654Z,7.30
2023-04-17T00:50:37.263Z,7.20
2023-04-17T00:53:04.734Z,7.40
2023-04-17T00:55:33.342Z,7.10
2023-04-17T00:58:00.668Z,7.20
2023-04-17T01:00:27.546Z,7.40
2023-04-17T01:02:58.080Z,7.40
2023-04-17T01:05:26.289Z,7.20
2023-04-17T01:07:54.478Z,7.10
2023-04-17T01:10:21.484Z,7.10
2023-04-17T01:13:00.751Z,7.00
2023-04-17T01:15:27.661Z,7.00
2023-04-17T01:17:54.646Z,7.00
2023-04-17T01:20:21.924Z,7.20
2023-04-17T01:22:52.281Z,7.20
2023-04-17T01:25:20.094Z,7.20
2023-04-17T01:27:47.513Z,7.30
2023-04-17T01:30:14.583Z,7.20
2023-04-17T01:32:55.199Z,7.30
2023-04-17T01:35:22.850Z,7.20
2023-04-17T01:37:50.132Z,7.00
2023-04-17T01:40:17.190Z,7.10
2023-04-17T01:42:45.371Z,7.30
2023-04-17T01:45:12.359Z,7.30
2023-04-17T01:47:40.139Z,7.20
2023-04-17T01:50:09.164Z,7.20
2023-04-17T01:52:37.045Z,7.30
2023-04-17T01:55:04.437Z,7.20
2023-04-17T01:57:32.773Z,7.20
2023-04-17T01:59:59.685Z,7.10
2023-04-17T02:02:26.715Z,7.10
2023-04-17T02:04:54.578Z,7.10
2023-04-17T02:07:21.635Z,7.00
2023-04-17T02:09:48.505Z,7.10
2023-04-17T02:12:15.965Z,7.00
2023-04-17T02:14:43.281Z,7.00
2023-04-17T02:17:10.556Z,7.00
2023-04-17T02:19:37.464Z,7.00
2023-04-17T02:22:04.337Z,6.90
2023-04-17T02:24:31.825Z,7.10
2023-04-17T02:27:00.945Z,6.90
2023-04-17T02:29:27.798Z,7.00
2023-04-17T02:31:55.973Z,7.00
2023-04-17T02:34:22.828Z,7.10
2023-04-17T02:36:52.538Z,7.00
2023-04-17T02:39:21.715Z,7.00
2023-04-17T02:41:48.615Z,7.00
2023-04-17T02:44:15.628Z,6.90
2023-04-17T02:46:42.469Z,7.10
2023-04-17T02:49:09.828Z,6.90
2023-04-17T02:51:37.523Z,7.10
2023-04-17T02:54:04.572Z,7.00
2023-04-17T02:56:31.642Z,6.90
2023-04-17T02:58:58.553Z,7.00
2023-04-17T03:01:26.393Z,6.90
2023-04-17T03:03:53.563Z,6.90
2023-04-17T03:06:21.636Z,7.00
2023-04-17T03:08:48.527Z,6.90
2023-04-17T03:11:16.330Z,7.10
2023-04-17T03:13:43.887Z,7.10
2023-04-17T03:16:13.779Z,7.10
2023-04-17T03:18:45.810Z,7.00
2023-04-17T03:21:12.844Z,7.00
2023-04-17T03:23:39.676Z,6.90
2023-04-17T03:26:08.000Z,6.90
2023-04-17T03:28:34.878Z,6.80
2023-04-17T03:31:02.947Z,6.90
2023-04-17T03:33:32.471Z,6.90
2023-04-17T03:35:59.345Z,6.90
2023-04-17T03:38:26.300Z,6.80
2023-04-17T03:40:54.393Z,6.80
2023-04-17T03:43:23.569Z,7.10
2023-04-17T03:45:51.243Z,7.10
2023-04-17T03:48:18.661Z,7.00
2023-04-17T03:50:46.710Z,7.00
2023-04-17T03:53:13.672Z,7.00
2023-04-17T03:55:40.822Z,7.00
2023-04-17T03:58:10.365Z,7.00
2023-04-17T04:00:38.554Z,7.00
2023-04-17T04:03:09.495Z,6.90
2023-04-17T04:05:40.825Z,7.00
2023-04-17T04:08:09.294Z,6.90
2023-04-17T04:10:49.248Z,6.90
2023-04-17T04:13:21.758Z,7.00
2023-04-17T04:15:54.894Z,6.90
2023-04-17T04:18:24.802Z,6.80
2023-04-17T04:20:51.685Z,6.90
2023-04-17T04:23:25.348Z,6.90
2023-04-17T04:25:56.930Z,7.00
2023-04-17T04:28:34.710Z,7.00
2023-04-17T04:31:02.748Z,6.80
2023-04-17T04:33:35.920Z,6.80
2023-04-17T04:36:03.526Z,6.90
2023-04-17T04:38:33.316Z,6.80
2023-04-17T04:41:11.453Z,6.90
2023-04-17T04:43:41.573Z,6.90
2023-04-17T04:46:11.207Z,6.90
2023-04-17T04:48:42.947Z,6.90
2023-04-17T04:51:10.453Z,6.90
2023-04-17T04:53:39.224Z,6.80
2023-04-17T04:56:06.440Z,6.90
2023-04-17T04:58:34.532Z,6.90
2023-04-17T05:01:02.657Z,6.80
2023-04-17T05:03:37.305Z,6.90
2023-04-17T05:06:06.059Z,6.80
2023-04-17T05:08:45.090Z,6.80
2023-04-17T05:11:15.470Z,6.90
2023-04-17T05:13:42.954Z,6.80
2023-04-17T05:16:17.422Z,6.90
2023-04-17T05:18:47.899Z,6.80
2023-04-17T05:21:18.392Z,6.80
2023-04-17T05:23:48.641Z,6.70
2023-04-17T05:26:15.698Z,6.90
2023-04-17T05:28:45.386Z,6.80
2023-04-17T05:31:18.099Z,6.80
2023-04-17T05:33:46.258Z,6.80
2023-04-17T05:36:13.371Z,6.80
2023-04-17T05:38:41.899Z,6.90
2023-04-17T05:41:10.706Z,7.00
2023-04-17T05:43:37.639Z,7.10
2023-04-17T05:46:04.785Z,7.00
2023-04-17T05:48:32.184Z,6.90
2023-04-17T05:50:59.071Z,6.90
2023-04-17T05:53:26.576Z,6.90
2023-04-17T05:55:57.418Z,7.00
2023-04-17T05:58:24.836Z,6.80
2023-04-17T06:00:56.869Z,6.90
2023-04-17T06:03:25.960Z,6.90
2023-04-17T06:06:00.637Z,7.00
2023-04-17T06:08:28.168Z,7.00
2023-04-17T06:10:56.280Z,7.00
2023-04-17T06:13:24.460Z,7.00
2023-04-17T06:15:51.856Z,7.10
2023-04-17T06:18:19.161Z,7.00
2023-04-17T06:20:46.440Z,7.00
2023-04-17T06:23:13.526Z,6.90
2023-04-17T06:25:40.696Z,7.00
2023-04-17T06:28:07.670Z,7.00
2023-04-17T06:30:34.862Z,6.90
2023-04-17T06:33:02.755Z,6.90
2023-04-17T06:35:30.784Z,6.90
2023-04-17T06:38:04.831Z,7.00
2023-04-17T06:40:33.015Z,7.00
2023-04-17T06:42:59.904Z,7.00
2023-04-17T06:45:28.192Z,7.10
2023-04-17T06:47:55.085Z,7.00
2023-04-17T06:50:22.150Z,7.10
2023-04-17T06:52:48.976Z,7.00
2023-04-17T06:55:15.886Z,7.10
2023-04-17T06:57:42.942Z,7.10
2023-04-17T07:00:10.627Z,7.10
2023-04-17T07:02:37.546Z,7.00
2023-04-17T07:05:08.170Z,6.90
2023-04-17T07:07:36.005Z,6.90
2023-04-17T07:10:04.050Z,6.90
2023-04-17T07:12:31.003Z,7.00
2023-04-17T07:14:57.852Z,7.00
2023-04-17T07:17:25.021Z,7.00
2023-04-17T07:19:51.884Z,7.00
2023-04-17T07:22:18.660Z,7.00
2023-04-17T07:24:45.839Z,6.90
2023-04-17T07:27:12.644Z,7.00
2023-04-17T07:29:39.497Z,7.00
2023-04-17T07:32:07.007Z,6.90
2023-04-17T07:34:34.352Z,6.90
2023-04-17T07:37:01.509Z,6.90
2023-04-17T07:39:31.577Z,6.90
2023-04-17T07:41:58.514Z,6.90
2023-04-17T07:44:25.297Z,7.00
2023-04-17T07:46:52.159Z,7.00
2023-04-17T07:49:19.040Z,7.20
2023-04-17T07:51:46.139Z,7.30
2023-04-17T07:54:13.259Z,7.20
2023-04-17T07:56:40.323Z,7.40
2023-04-17T07:59:07.157Z,7.20
2023-04-17T08:01:34.137Z,7.10
2023-04-17T08:04:01.439Z,7.30
2023-04-17T08:06:28.640Z,7.10
2023-04-17T08:08:55.619Z,7.30
2023-04-17T08:11:22.513Z,7.10
2023-04-17T08:13:49.792Z,7.10
2023-04-17T08:16:17.048Z,7.20
2023-04-17T08:18:43.980Z,7.10
2023-04-17T08:21:10.984Z,7.10
2023-04-17T08:23:37.913Z,7.20
2023-04-17T08:26:05.170Z,7.30
2023-04-17T08:28:32.038Z,7.40
2023-04-17T08:30:59.084Z,7.40
2023-04-17T08:33:27.140Z,7.20
2023-04-17T08:35:54.182Z,7.30
2023-04-17T08:38:21.147Z,7.20
2023-04-17T08:40:52.119Z,7.30
2023-04-17T08:43:21.424Z,7.30
2023-04-17T08:45:54.058Z,7.10
2023-04-17T08:48:22.551Z,7.30
2023-04-17T08:50:51.054Z,7.20
2023-04-17T08:53:18.781Z,7.20
2023-04-17T08:55:46.482Z,7.40
2023-04-17T08:58:14.633Z,7.40
2023-04-17T09:00:43.518Z,7.50
2023-04-17T09:03:13.221Z,7.40
2023-04-17T09:05:43.661Z,7.40
2023-04-17T09:08:12.478Z,7.30
2023-04-17T09:10:44.322Z,7.40
2023-04-17T09:13:14.773Z,7.30
2023-04-17T09:15:43.581Z,7.30
2023-04-17T09:18:27.853Z,7.40
2023-04-17T09:20:54.766Z,7.40
2023-04-17T09:23:23.386Z,7.40
2023-04-17T09:26:10.504Z,7.40
2023-04-17T09:28:41.267Z,7.50
2023-04-17T09:31:26.527Z,7.50
2023-04-17T09:33:59.873Z,7.60
2023-04-17T09:36:28.777Z,7.80
2023-04-17T09:38:55.995Z,7.90
2023-04-17T09:41:28.864Z,8.10
2023-04-17T09:43:57.171Z,8.10
2023-04-17T09:46:34.449Z,7.90
2023-04-17T09:49:15.733Z,7.90
2023-04-17T09:51:42.726Z,7.80
2023-04-17T09:54:11.767Z,7.80
2023-04-17T09:56:39.905Z,7.70
2023-04-17T09:59:07.488Z,7.70
2023-04-17T10:01:36.972Z,7.70
2023-04-17T10:04:05.089Z,7.70
2023-04-17T10:06:33.305Z,7.70
2023-04-17T10:09:00.477Z,7.70
2023-04-17T10:11:36.232Z,7.70
2023-04-17T10:14:15.654Z,7.70
2023-04-17T10:16:43.718Z,7.60
2023-04-17T10:19:38.630Z,7.80
2023-04-17T10:22:20.523Z,7.80
2023-04-17T10:25:13.610Z,7.80
2023-04-17T10:27:40.864Z,7.80
2023-04-17T10:30:13.117Z,7.80
2023-04-17T10:32:43.015Z,7.80
2023-04-17T10:35:16.017Z,7.70
2023-04-17T10:37:50.287Z,7.60
2023-04-17T10:40:22.808Z,7.70
2023-04-17T10:43:02.875Z,7.80
2023-04-17T10:46:21.012Z,7.60
2023-04-17T10:48:52.924Z,7.90
2023-04-17T10:51:22.891Z,8.10
2023-04-17T10:54:00.218Z,7.90
2023-04-17T10:56:30.660Z,8.00
2023-04-17T10:58:59.153Z,8.00
2023-04-17T11:01:31.630Z,7.90
2023-04-17T11:04:01.979Z,8.00
2023-04-17T11:06:32.212Z,8.20
2023-04-17T11:09:00.472Z,8.00
2023-04-17T11:11:40.571Z,8.10
2023-04-17T11:14:22.523Z,8.40
2023-04-17T11:16:51.663Z,8.20
2023-04-17T11:19:23.671Z,8.10
2023-04-17T11:21:53.640Z,8.20
2023-04-17T11:24:23.541Z,8.20
2023-04-17T11:26:50.397Z,8.20
2023-04-17T11:29:18.793Z,8.20
2023-04-17T11:31:47.017Z,8.20
2023-04-17T11:34:15.600Z,8.10
2023-04-17T11:36:52.481Z,8.30
2023-04-17T11:39:25.016Z,8.40
2023-04-17T11:41:52.694Z,8.40
2023-04-17T11:44:20.998Z,8.30
2023-04-17T11:46:52.340Z,8.40
2023-04-17T11:49:32.079Z,8.40
2023-04-17T11:52:04.437Z,8.50
2023-04-17T11:54:37.162Z,8.40
2023-04-17T11:57:06.345Z,8.30
2023-04-17T11:59:38.028Z,8.40
2023-04-17T12:02:07.186Z,8.60
2023-04-17T12:04:36.403Z,8.50
2023-04-17T12:07:08.316Z,8.50
2023-04-17T12:09:35.954Z,8.50
2023-04-17T12:12:07.425Z,8.40
2023-04-17T12:14:34.639Z,8.50
2023-04-17T12:17:01.579Z,8.50
2023-04-17T12:19:29.833Z,8.50
2023-04-17T12:21:57.302Z,8.60
2023-04-17T12:24:25.053Z,8.70
2023-04-17T12:26:53.102Z,8.50
2023-04-17T12:29:32.294Z,8.60
2023-04-17T12:32:07.882Z,8.60
2023-04-17T12:34:34.872Z,8.50
2023-04-17T12:37:01.750Z,8.70
2023-04-17T12:39:28.611Z,8.70
2023-04-17T12:41:55.499Z,8.60
2023-04-17T12:44:22.290Z,8.70
2023-04-17T12:46:49.158Z,8.60
2023-04-17T12:49:16.417Z,8.40
2023-04-17T12:51:43.236Z,8.50
2023-04-17T12:54:10.244Z,8.50
2023-04-17T12:56:37.272Z,8.60
2023-04-17T12:59:04.157Z,8.70
2023-04-17T13:01:31.230Z,8.50
2023-04-17T13:03:58.310Z,8.70
2023-04-17T13:06:25.680Z,8.80
2023-04-17T13:08:52.675Z,8.70
2023-04-17T13:11:19.580Z,8.70
2023-04-17T13:13:47.066Z,8.90
2023-04-17T13:16:13.978Z,8.80
2023-04-17T13:18:40.818Z,8.70
2023-04-17T13:21:08.145Z,8.80
2023-04-17T13:23:34.972Z,8.80
2023-04-17T13:26:01.797Z,8.70
2023-04-17T13:28:28.657Z,8.80
2023-04-17T13:30:56.023Z,8.80
2023-04-17T13:33:23.059Z,8.90
2023-04-17T13:35:51.078Z,8.80
2023-04-17T13:38:17.940Z,8.90
2023-04-17T13:40:44.847Z,9.10
2023-04-17T13:43:11.687Z,9.10
2023-04-17T13:45:38.600Z,9.20
2023-04-17T13:48:05.560Z,9.30
2023-04-17T13:50:32.565Z,9.30
2023-04-17T13:52:59.332Z,9.30
2023-04-17T13:55:26.253Z,9.30
2023-04-17T13:57:54.233Z,9.30
2023-04-17T14:00:22.094Z,9.30
2023-04-17T14:02:49.183Z,9.20
2023-04-17T14:05:16.360Z,9.40
2023-04-17T14:07:44.634Z,9.40
2023-04-17T14:10:11.467Z,9.50
2023-04-17T14:12:38.378Z,9.40
2023-04-17T14:15:07.403Z,9.30
2023-04-17T14:17:38.043Z,9.20
2023-04-17T14:20:06.054Z,9.40
2023-04-17T14:22:32.886Z,9.30
2023-04-17T14:24:59.703Z,9.40
2023-04-17T14:27:26.901Z,9.30
2023-04-17T14:29:53.837Z,9.30
2023-04-17T14:32:20.694Z,9.30
2023-04-17T14:34:47.532Z,9.20
2023-04-17T14:37:14.641Z,9.30
2023-04-17T14:39:41.477Z,9.20
2023-04-17T14:42:08.290Z,9.20
2023-04-17T14:44:35.062Z,9.20
2023-04-17T14:47:02.369Z,9.20
2023-04-17T14:49:30.229Z,9.20
2023-04-17T14:51:57.087Z,9.30
2023-04-17T14:54:23.994Z,9.30
2023-04-17T14:56:50.854Z,9.20
2023-04-17T14:59:17.853Z,9.40
2023-04-17T15:01:44.763Z,9.50
2023-04-17T15:04:11.924Z,9.40
2023-04-17T15:06:39.300Z,9.40
2023-04-17T15:09:07.134Z,9.30
2023-04-17T15:11:34.134Z,9.30
2023-04-17T15:14:01.058Z,9.30
2023-04-17T15:16:27.948Z,9.40
2023-04-17T15:18:54.840Z,9.10
2023-04-17T15:21:21.793Z,9.00
2023-04-17T15:23:48.658Z,8.80
2023-04-17T15:26:15.621Z,8.70
2023-04-17T15:28:42.588Z,8.70
2023-04-17T15:31:09.588Z,8.90
2023-04-17T15:33:37.298Z,9.00
2023-04-17T15:36:04.186Z,8.80
2023-04-17T15:38:31.206Z,8.90
2023-04-17T15:40:58.102Z,8.90
2023-04-17T15:43:25.282Z,8.80
2023-04-17T15:45:52.240Z,8.70
2023-04-17T15:48:19.108Z,8.60
2023-04-17T15:50:46.298Z,8.60
2023-04-17T15:53:13.358Z,8.30
2023-04-17T15:55:41.390Z,8.40
2023-04-17T15:58:08.558Z,8.50
2023-04-17T16:00:35.520Z,8.20
2023-04-17T16:03:02.550Z,8.30
2023-04-17T16:05:30.521Z,8.10
2023-04-17T16:07:57.641Z,8.10
2023-04-17T16:10:24.700Z,8.20
2023-04-17T16:12:51.487Z,8.20
2023-04-17T16:15:18.713Z,8.20
2023-04-17T16:17:45.896Z,8.30
2023-04-17T16:20:13.116Z,8.30
2023-04-17T16:22:40.493Z,8.30
2023-04-17T16:25:07.800Z,8.40
2023-04-17T16:27:34.737Z,8.40
2023-04-17T16:30:02.925Z,8.60
2023-04-17T16:32:31.967Z,8.50
2023-04-17T16:34:59.082Z,8.40
2023-04-17T16:37:26.161Z,8.50
2023-04-17T16:39:53.137Z,8.40
2023-04-17T16:42:20.017Z,8.30
2023-04-17T16:44:47.330Z,8.30
2023-04-17T16:47:14.760Z,8.30
2023-04-17T16:49:42.794Z,8.40
2023-04-17T16:52:09.791Z,8.70
2023-04-17T16:54:36.658Z,8.70
2023-04-17T16:57:03.651Z,8.70
2023-04-17T16:59:30.507Z,8.70
2023-04-17T17:01:57.905Z,8.60
2023-04-17T17:04:25.677Z,8.70
2023-04-17T17:06:52.592Z,8.80
2023-04-17T17:09:20.481Z,8.40
2023-04-17T17:11:47.878Z,8.40
2023-04-17T17:14:16.133Z,8.40
2023-04-17T17:16:43.108Z,8.30
2023-04-17T17:19:10.120Z,8.20
2023-04-17T17:21:37.265Z,8.30
2023-04-17T17:24:04.340Z,8.20
2023-04-17T17:26:31.178Z,8.20
2023-04-17T17:28:58.012Z,8.20
2023-04-17T17:31:24.919Z,8.20
2023-04-17T17:33:54.007Z,8.10
2023-04-17T17:36:21.920Z,8.20
2023-04-17T17:38:55.431Z,8.40
2023-04-17T17:41:26.552Z,8.40
2023-04-17T17:43:56.080Z,8.20
2023-04-17T17:46:24.394Z,8.20
2023-04-17T17:48:51.358Z,8.20
2023-04-17T17:51:18.239Z,8.10
2023-04-17T17:53:45.333Z,8.10
2023-04-17T17:56:12.171Z,8.10
2023-04-17T17:58:39.072Z,8.20
2023-04-17T18:01:06.887Z,8.10
2023-04-17T18:03:35.406Z,8.20
2023-04-17T18:06:02.410Z,8.10
2023-04-17T18:08:29.297Z,8.30
2023-04-17T18:10:56.358Z,8.10
2023-04-17T18:13:23.225Z,8.10
2023-04-17T18:15:50.184Z,8.10
2023-04-17T18:18:16.995Z,8.10
2023-04-17T18:20:43.877Z,8.10
2023-04-17T18:23:10.734Z,8.10
2023-04-17T18:25:39.089Z,8.00
2023-04-17T18:28:06.548Z,7.90
2023-04-17T18:30:33.493Z,8.00
2023-04-17T18:33:00.641Z,8.00
2023-04-17T18:35:27.639Z,7.90
2023-04-17T18:37:54.570Z,8.00
2023-04-17T18:40:21.435Z,8.00
2023-04-17T18:42:48.318Z,8.00
2023-04-17T18:45:16.130Z,8.00
2023-04-17T18:47:43.404Z,7.90
2023-04-17T18:50:11.495Z,7.90
2023-04-17T18:52:45.072Z,7.90
2023-04-17T18:55:17.500Z,8.00
2023-04-17T18:57:44.409Z,7.90
2023-04-17T19:00:12.757Z,8.00
2023-04-17T19:02:40.824Z,7.80
2023-04-17T19:05:08.322Z,7.80
2023-04-17T19:07:35.200Z,7.80
2023-04-17T19:10:02.049Z,7.80
2023-04-17T19:12:30.483Z,7.80
2023-04-17T19:14:57.468Z,7.80
2023-04-17T19:17:25.451Z,7.80
2023-04-17T19:19:52.352Z,7.80
2023-04-17T19:22:19.542Z,7.80
2023-04-17T19:24:49.815Z,7.80
2023-04-17T19:27:17.428Z,7.70
2023-04-17T19:29:44.343Z,7.70
2023-04-17T19:32:12.104Z,7.60
2023-04-17T19:34:39.226Z,7.80
2023-04-17T19:37:06.143Z,7.80
2023-04-17T19:39:32.983Z,7.70
2023-04-17T19:41:59.857Z,7.70
2023-04-17T19:44:28.062Z,7.70
2023-04-17T19:46:56.564Z,7.60
2023-04-17T19:49:23.564Z,7.70
2023-04-17T19:51:50.434Z,7.60
2023-04-17T19:54:17.292Z,7.70
2023-04-17T19:56:44.173Z,7.60
2023-04-17T19:59:13.213Z,7.50
2023-04-17T20:01:42.937Z,7.50
2023-04-17T20:04:10.870Z,7.60
2023-04-17T20:06:39.518Z,7.60
2023-04-17T20:09:06.825Z,7.60
2023-04-17T20:11:34.227Z,7.60
2023-04-17T20:14:01.104Z,7.70
2023-04-17T20:16:28.095Z,7.60
2023-04-17T20:18:56.710Z,7.60
2023-04-17T20:21:24.177Z,7.80
2023-04-17T20:23:51.192Z,7.80
2023-04-17T20:26:18.282Z,7.70
2023-04-17T20:28:45.209Z,7.70
2023-04-17T20:31:12.185Z,7.60
2023-04-17T20:33:39.295Z,7.60
2023-04-17T20:36:06.475Z,7.60
2023-04-17T20:38:33.442Z,7.50
2023-04-17T20:41:00.405Z,7.70
2023-04-17T20:43:27.309Z,7.50
2023-04-17T20:45:54.225Z,7.60
2023-04-17T20:48:22.151Z,7.40
2023-04-17T20:50:49.054Z,7.40
2023-04-17T20:53:35.016Z,7.40
2023-04-17T20:56:04.873Z,7.40
2023-04-17T20:58:31.673Z,7.40
2023-04-17T21:01:01.721Z,7.40
2023-04-17T21:03:30.935Z,7.30
2023-04-17T21:05:57.952Z,7.20
2023-04-17T21:08:25.080Z,7.20
2023-04-17T21:10:52.000Z,7.30
2023-04-17T21:13:18.885Z,7.40
2023-04-17T21:15:45.694Z,7.40
2023-04-17T21:18:12.628Z,7.10
2023-04-17T21:20:39.540Z,7.10
2023-04-17T21:23:06.379Z,7.10
2023-04-17T21:25:33.178Z,7.10
2023-04-17T21:28:00.209Z,7.20
2023-04-17T21:30:27.583Z,7.10
2023-04-17T21:32:54.505Z,7.10
2023-04-17T21:35:21.433Z,7.00
2023-04-17T21:37:48.232Z,7.10
2023-04-17T21:40:15.221Z,7.20
2023-04-17T21:42:42.561Z,7.20
2023-04-17T21:45:09.867Z,7.10
2023-04-17T21:47:36.788Z,7.10
2023-04-17T21:50:03.763Z,7.00
2023-04-17T21:52:30.937Z,7.10
2023-04-17T21:55:02.978Z,7.20
2023-04-17T21:57:30.733Z,7.10
2023-04-17T21:59:57.589Z,7.00
2023-04-17T22:02:24.569Z,7.10
2023-04-17T22:04:52.715Z,7.10
2023-04-17T22:07:21.523Z,7.20
2023-04-17T22:09:48.616Z,7.10
2023-04-17T22:12:23.386Z,7.10
2023-04-17T22:14:50.246Z,7.20
2023-04-17T22:17:17.148Z,7.00
2023-04-17T22:19:44.060Z,7.00
2023-04-17T22:22:11.013Z,7.20
2023-04-17T22:24:37.920Z,7.10
2023-04-17T22:27:04.704Z,7.10
2023-04-17T22:29:31.572Z,7.00
2023-04-17T22:31:58.375Z,7.20
2023-04-17T22:34:25.266Z,7.10
2023-04-17T22:36:52.161Z,7.00
2023-04-17T22:39:19.019Z,6.90
2023-04-17T22:41:45.824Z,6.90
2023-04-17T22:44:13.642Z,6.90
2023-04-17T22:46:40.788Z,6.90
2023-04-17T22:49:07.683Z,7.00
2023-04-17T22:51:34.537Z,6.80
2023-04-17T22:54:08.555Z,7.10
2023-04-17T22:56:42.683Z,7.10
2023-04-17T22:59:10.736Z,7.20
2023-04-17T23:01:37.625Z,6.90
2023-04-17T23:04:04.538Z,6.90
2023-04-17T23:06:31.996Z,6.90
2023-04-17T23:08:58.874Z,6.70
2023-04-17T23:11:25.848Z,6.80
2023-04-17T23:13:52.673Z,6.90
2023-04-17T23:16:19.524Z,6.80
2023-04-17T23:18:46.411Z,6.70
2023-04-17T23:21:13.315Z,6.80
2023-04-17T23:23:40.394Z,6.70
2023-04-17T23:26:07.673Z,6.70
2023-04-17T23:28:34.634Z,6.70
2023-04-17T23:31:06.208Z,6.60
2023-04-17T23:33:33.443Z,6.50
2023-04-17T23:36:00.340Z,6.50
2023-04-17T23:38:27.202Z,6.60
2023-04-17T23:40:54.466Z,6.50
2023-04-17T23:43:21.377Z,6.50
2023-04-17T23:45:48.204Z,6.70
2023-04-17T23:48:15.108Z,6.70
2023-04-17T23:50:42.074Z,6.60
2023-04-17T23:53:08.954Z,6.60
2023-04-17T23:55:35.844Z,6.50
2023-04-17T23:58:02.863Z,6.60
